sensor_id;sensor_type;location;lat;lon;timestamp;pressure;altitude;pressure_sealevel;temperature;humidity
54666;BME280;40566;50.006;36.180;2023-05-01T00:03:29;99117.94;;;8.93;77.94
54666;BME280;40566;50.006;36.180;2023-05-01T00:08:30;99113.59;;;8.95;77.83
54666;BME280;40566;50.006;36.180;2023-05-01T00:13:31;99133.47;;;8.91;77.85
54666;BME280;40566;50.006;36.180;2023-05-01T00:18:33;99134.41;;;8.89;77.79
54666;BME280;40566;50.006;36.180;2023-05-01T00:23:33;99140.41;;;8.89;77.95
54666;BME280;40566;50.006;36.180;2023-05-01T00:28:34;99140.28;;;8.92;77.67
54666;BME280;40566;50.006;36.180;2023-05-01T00:33:34;99140.38;;;8.91;77.58
54666;BME280;40566;50.006;36.180;2023-05-01T00:38:35;99128.53;;;8.84;77.73
54666;BME280;40566;50.006;36.180;2023-05-01T00:43:35;99138.84;;;8.84;77.68
54666;BME280;40566;50.006;36.180;2023-05-01T00:48:36;99145.00;;;8.80;77.69
54666;BME280;40566;50.006;36.180;2023-05-01T00:53:39;99129.38;;;8.84;77.49
54666;BME280;40566;50.006;36.180;2023-05-01T00:58:40;99147.63;;;8.78;77.47
54666;BME280;40566;50.006;36.180;2023-05-01T01:03:41;99149.44;;;8.74;77.68
54666;BME280;40566;50.006;36.180;2023-05-01T01:14:30;99138.06;;;8.82;77.47
54666;BME280;40566;50.006;36.180;2023-05-01T01:35:30;99138.25;;;8.76;77.53
54666;BME280;40566;50.006;36.180;2023-05-01T01:40:37;99138.22;;;8.77;77.40
54666;BME280;40566;50.006;36.180;2023-05-01T01:45:39;99139.69;;;8.56;77.57
54666;BME280;40566;50.006;36.180;2023-05-01T01:50:42;99149.72;;;8.65;77.68
54666;BME280;40566;50.006;36.180;2023-05-01T01:55:45;99160.72;;;8.70;77.82
54666;BME280;40566;50.006;36.180;2023-05-01T02:00:47;99183.03;;;8.73;77.58
54666;BME280;40566;50.006;36.180;2023-05-01T02:05:49;99169.34;;;8.71;77.60
54666;BME280;40566;50.006;36.180;2023-05-01T02:10:51;99170.88;;;8.77;77.50
54666;BME280;40566;50.006;36.180;2023-05-01T02:15:59;99169.28;;;8.72;77.51
54666;BME280;40566;50.006;36.180;2023-05-01T02:21:03;99164.06;;;8.74;77.46
54666;BME280;40566;50.006;36.180;2023-05-01T02:26:04;99177.91;;;8.71;77.52
54666;BME280;40566;50.006;36.180;2023-05-01T02:31:06;99189.91;;;8.72;77.35
54666;BME280;40566;50.006;36.180;2023-05-01T02:36:07;99191.75;;;8.69;77.34
54666;BME280;40566;50.006;36.180;2023-05-01T02:41:09;99185.72;;;8.68;77.34
54666;BME280;40566;50.006;36.180;2023-05-01T02:46:12;99190.88;;;8.68;77.24
54666;BME280;40566;50.006;36.180;2023-05-01T02:51:14;99203.06;;;8.63;77.42
54666;BME280;40566;50.006;36.180;2023-05-01T02:56:15;99207.38;;;8.63;77.43
54666;BME280;40566;50.006;36.180;2023-05-01T03:01:15;99211.69;;;8.62;77.52
54666;BME280;40566;50.006;36.180;2023-05-01T03:06:16;99215.91;;;8.65;77.31
54666;BME280;40566;50.006;36.180;2023-05-01T03:11:18;99231.38;;;8.65;77.15
54666;BME280;40566;50.006;36.180;2023-05-01T03:16:19;99235.88;;;8.58;77.40
54666;BME280;40566;50.006;36.180;2023-05-01T03:21:19;99245.16;;;8.64;77.17
54666;BME280;40566;50.006;36.180;2023-05-01T03:26:21;99242.66;;;8.61;77.12
54666;BME280;40566;50.006;36.180;2023-05-01T03:31:21;99251.19;;;8.63;77.11
54666;BME280;40566;50.006;36.180;2023-05-01T03:36:22;99260.69;;;8.61;77.01
54666;BME280;40566;50.006;36.180;2023-05-01T03:41:24;99258.19;;;8.59;77.02
54666;BME280;40566;50.006;36.180;2023-05-01T03:46:24;99255.63;;;8.59;77.15
54666;BME280;40566;50.006;36.180;2023-05-01T03:51:25;99260.59;;;8.65;77.05
54666;BME280;40566;50.006;36.180;2023-05-01T03:56:26;99260.47;;;8.70;76.78
54666;BME280;40566;50.006;36.180;2023-05-01T04:01:27;99264.69;;;8.72;76.88
54666;BME280;40566;50.006;36.180;2023-05-01T04:06:28;99264.59;;;8.76;76.84
54666;BME280;40566;50.006;36.180;2023-05-01T04:11:29;99275.84;;;8.73;76.59
54666;BME280;40566;50.006;36.180;2023-05-01T04:16:30;99279.56;;;8.63;76.66
54666;BME280;40566;50.006;36.180;2023-05-01T04:21:31;99287.38;;;8.60;76.87
54666;BME280;40566;50.006;36.180;2023-05-01T04:26:31;99292.06;;;8.77;76.59
54666;BME280;40566;50.006;36.180;2023-05-01T04:31:32;99300.47;;;8.85;76.69
54666;BME280;40566;50.006;36.180;2023-05-01T04:36:34;99296.09;;;8.87;76.44
54666;BME280;40566;50.006;36.180;2023-05-01T04:41:34;99300.09;;;8.97;76.08
54666;BME280;40566;50.006;36.180;2023-05-01T04:46:35;99309.22;;;9.09;75.96
54666;BME280;40566;50.006;36.180;2023-05-01T04:51:35;99314.09;;;9.18;75.72
54666;BME280;40566;50.006;36.180;2023-05-01T04:56:36;99309.81;;;9.19;75.73
54666;BME280;40566;50.006;36.180;2023-05-01T05:01:37;99317.38;;;9.25;75.58
54666;BME280;40566;50.006;36.180;2023-05-01T05:06:37;99308.59;;;9.30;75.39
54666;BME280;40566;50.006;36.180;2023-05-01T05:11:38;99312.91;;;9.30;75.62
54666;BME280;40566;50.006;36.180;2023-05-01T05:16:39;99318.03;;;9.31;75.49
54666;BME280;40566;50.006;36.180;2023-05-01T05:21:39;99319.00;;;9.27;75.46
54666;BME280;40566;50.006;36.180;2023-05-01T05:26:40;99326.28;;;9.15;76.04
54666;BME280;40566;50.006;36.180;2023-05-01T05:31:41;99333.09;;;9.16;75.97
54666;BME280;40566;50.006;36.180;2023-05-01T05:36:41;99334.75;;;9.18;75.87
54666;BME280;40566;50.006;36.180;2023-05-01T05:41:42;99337.84;;;9.31;75.75
54666;BME280;40566;50.006;36.180;2023-05-01T05:46:43;99346.91;;;9.44;75.42
54666;BME280;40566;50.006;36.180;2023-05-01T05:51:43;99353.28;;;9.32;75.46
54666;BME280;40566;50.006;36.180;2023-05-01T05:56:44;99354.19;;;9.30;75.48
54666;BME280;40566;50.006;36.180;2023-05-01T06:01:45;99356.28;;;9.47;74.98
54666;BME280;40566;50.006;36.180;2023-05-01T06:06:47;99345.75;;;9.55;74.75
54666;BME280;40566;50.006;36.180;2023-05-01T06:11:48;99356.78;;;9.60;74.76
54666;BME280;40566;50.006;36.180;2023-05-01T06:16:48;99356.16;;;9.51;74.92
54666;BME280;40566;50.006;36.180;2023-05-01T06:21:49;99363.97;;;9.78;74.66
54666;BME280;40566;50.006;36.180;2023-05-01T06:26:49;99369.34;;;9.99;73.75
54666;BME280;40566;50.006;36.180;2023-05-01T06:31:50;99360.72;;;10.00;73.36
54666;BME280;40566;50.006;36.180;2023-05-01T06:36:51;99380.06;;;9.86;74.04
54666;BME280;40566;50.006;36.180;2023-05-01T06:41:51;99380.34;;;9.77;73.88
54666;BME280;40566;50.006;36.180;2023-05-01T06:46:52;99382.38;;;9.96;73.62
54666;BME280;40566;50.006;36.180;2023-05-01T06:51:52;99382.88;;;10.07;73.09
54666;BME280;40566;50.006;36.180;2023-05-01T06:56:53;99396.09;;;9.98;72.80
54666;BME280;40566;50.006;36.180;2023-05-01T07:01:54;99401.00;;;9.77;73.56
54666;BME280;40566;50.006;36.180;2023-05-01T07:06:54;99402.72;;;9.78;73.38
54666;BME280;40566;50.006;36.180;2023-05-01T07:11:55;99410.38;;;10.09;72.52
54666;BME280;40566;50.006;36.180;2023-05-01T07:16:58;99408.03;;;10.28;72.09
54666;BME280;40566;50.006;36.180;2023-05-01T07:21:59;99412.47;;;10.25;72.04
54666;BME280;40566;50.006;36.180;2023-05-01T07:27:00;99419.47;;;10.21;71.86
54666;BME280;40566;50.006;36.180;2023-05-01T07:32:00;99423.84;;;10.19;72.17
54666;BME280;40566;50.006;36.180;2023-05-01T07:37:01;99432.16;;;10.57;71.47
54666;BME280;40566;50.006;36.180;2023-05-01T07:42:04;99440.19;;;10.75;70.77
54666;BME280;40566;50.006;36.180;2023-05-01T07:47:05;99441.28;;;10.67;71.12
54666;BME280;40566;50.006;36.180;2023-05-01T07:52:05;99453.88;;;10.51;71.13
54666;BME280;40566;50.006;36.180;2023-05-01T07:57:10;99462.06;;;10.38;70.71
54666;BME280;40566;50.006;36.180;2023-05-01T08:02:10;99464.84;;;10.31;70.93
54666;BME280;40566;50.006;36.180;2023-05-01T08:07:13;99458.53;;;10.40;70.72
54666;BME280;40566;50.006;36.180;2023-05-01T08:12:14;99473.25;;;10.38;70.71
54666;BME280;40566;50.006;36.180;2023-05-01T08:17:14;99482.13;;;10.29;70.98
54666;BME280;40566;50.006;36.180;2023-05-01T08:22:15;99485.72;;;10.24;71.12
54666;BME280;40566;50.006;36.180;2023-05-01T08:27:16;99486.78;;;10.46;70.41
54666;BME280;40566;50.006;36.180;2023-05-01T08:32:17;99497.44;;;10.64;69.68
54666;BME280;40566;50.006;36.180;2023-05-01T08:37:18;99499.94;;;10.67;69.64
54666;BME280;40566;50.006;36.180;2023-05-01T08:42:19;99507.03;;;10.60;69.32
54666;BME280;40566;50.006;36.180;2023-05-01T08:47:19;99510.72;;;10.53;70.09
54666;BME280;40566;50.006;36.180;2023-05-01T08:52:21;99514.88;;;10.59;69.78
54666;BME280;40566;50.006;36.180;2023-05-01T08:57:23;99523.09;;;10.70;69.58
54666;BME280;40566;50.006;36.180;2023-05-01T09:02:26;99527.28;;;10.47;70.29
54666;BME280;40566;50.006;36.180;2023-05-01T09:07:28;99525.69;;;10.43;70.67
54666;BME280;40566;50.006;36.180;2023-05-01T09:12:29;99541.72;;;10.55;70.63
54666;BME280;40566;50.006;36.180;2023-05-01T09:17:35;99547.00;;;10.78;69.84
54666;BME280;40566;50.006;36.180;2023-05-01T09:22:36;99549.84;;;10.70;70.23
54666;BME280;40566;50.006;36.180;2023-05-01T09:27:37;99557.91;;;10.60;70.48
54666;BME280;40566;50.006;36.180;2023-05-01T09:32:37;99555.69;;;10.49;71.13
54666;BME280;40566;50.006;36.180;2023-05-01T09:37:39;99553.31;;;10.69;70.45
54666;BME280;40566;50.006;36.180;2023-05-01T09:42:50;99549.06;;;10.68;70.58
54666;BME280;40566;50.006;36.180;2023-05-01T09:47:51;99568.25;;;10.88;70.63
54666;BME280;40566;50.006;36.180;2023-05-01T09:52:53;99573.81;;;11.29;69.74
54666;BME280;40566;50.006;36.180;2023-05-01T09:57:53;99573.81;;;11.29;69.88
54666;BME280;40566;50.006;36.180;2023-05-01T10:02:54;99566.16;;;11.26;69.98
54666;BME280;40566;50.006;36.180;2023-05-01T10:07:59;99583.16;;;11.33;70.16
54666;BME280;40566;50.006;36.180;2023-05-01T10:13:20;99573.94;;;11.26;70.06
54666;BME280;40566;50.006;36.180;2023-05-01T10:18:21;99586.75;;;11.29;70.16
54666;BME280;40566;50.006;36.180;2023-05-01T10:23:23;99592.66;;;11.34;70.45
54666;BME280;40566;50.006;36.180;2023-05-01T10:28:24;99592.38;;;11.42;70.00
54666;BME280;40566;50.006;36.180;2023-05-01T10:33:27;99605.28;;;11.43;69.61
54666;BME280;40566;50.006;36.180;2023-05-01T10:38:32;99592.59;;;11.61;68.75
54666;BME280;40566;50.006;36.180;2023-05-01T10:43:36;99604.41;;;11.69;68.04
54666;BME280;40566;50.006;36.180;2023-05-01T10:53:39;99608.75;;;11.94;67.52
54666;BME280;40566;50.006;36.180;2023-05-01T11:03:41;99627.84;;;11.92;67.14
54666;BME280;40566;50.006;36.180;2023-05-01T11:08:41;99624.41;;;11.91;67.03
54666;BME280;40566;50.006;36.180;2023-05-01T11:13:58;99609.44;;;11.73;67.01
54666;BME280;40566;50.006;36.180;2023-05-01T11:18:59;99623.94;;;11.78;67.63
54666;BME280;40566;50.006;36.180;2023-05-01T11:24:00;99635.16;;;11.79;67.54
54666;BME280;40566;50.006;36.180;2023-05-01T11:29:01;99648.91;;;11.81;67.44
54666;BME280;40566;50.006;36.180;2023-05-01T11:34:04;99643.44;;;11.90;67.09
54666;BME280;40566;50.006;36.180;2023-05-01T11:39:13;99637.28;;;11.93;67.25
54666;BME280;40566;50.006;36.180;2023-05-01T11:44:16;99646.16;;;11.85;67.45
54666;BME280;40566;50.006;36.180;2023-05-01T11:49:25;99647.84;;;11.86;66.65
54666;BME280;40566;50.006;36.180;2023-05-01T11:54:26;99663.66;;;11.79;67.01
54666;BME280;40566;50.006;36.180;2023-05-01T11:59:27;99668.16;;;11.74;66.62
54666;BME280;40566;50.006;36.180;2023-05-01T12:04:28;99670.09;;;11.67;66.64
54666;BME280;40566;50.006;36.180;2023-05-01T12:09:29;99677.16;;;11.88;65.81
54666;BME280;40566;50.006;36.180;2023-05-01T12:14:30;99676.44;;;12.10;64.89
54666;BME280;40566;50.006;36.180;2023-05-01T12:19:30;99677.13;;;12.15;64.14
54666;BME280;40566;50.006;36.180;2023-05-01T12:24:31;99684.75;;;12.20;63.58
54666;BME280;40566;50.006;36.180;2023-05-01T12:29:39;99679.19;;;12.30;62.70
54666;BME280;40566;50.006;36.180;2023-05-01T12:34:40;99699.94;;;12.30;62.79
54666;BME280;40566;50.006;36.180;2023-05-01T12:39:41;99706.19;;;12.25;63.23
54666;BME280;40566;50.006;36.180;2023-05-01T12:44:43;99709.66;;;12.24;62.84
54666;BME280;40566;50.006;36.180;2023-05-01T12:49:44;99714.94;;;12.22;62.55
54666;BME280;40566;50.006;36.180;2023-05-01T12:54:45;99718.63;;;12.15;62.75
54666;BME280;40566;50.006;36.180;2023-05-01T12:59:46;99719.63;;;12.11;62.83
54666;BME280;40566;50.006;36.180;2023-05-01T13:04:48;99716.03;;;12.15;63.10
54666;BME280;40566;50.006;36.180;2023-05-01T13:09:51;99721.88;;;12.20;62.95
54666;BME280;40566;50.006;36.180;2023-05-01T13:14:52;99730.41;;;12.24;62.45
54666;BME280;40566;50.006;36.180;2023-05-01T13:20:01;99733.56;;;12.32;62.48
54666;BME280;40566;50.006;36.180;2023-05-01T13:25:17;99733.00;;;12.49;62.40
54666;BME280;40566;50.006;36.180;2023-05-01T13:30:21;99746.75;;;12.51;62.03
54666;BME280;40566;50.006;36.180;2023-05-01T13:35:30;99751.16;;;12.49;62.17
54666;BME280;40566;50.006;36.180;2023-05-01T13:40:32;99741.97;;;12.40;62.01
54666;BME280;40566;50.006;36.180;2023-05-01T13:45:35;99754.97;;;12.39;61.95
54666;BME280;40566;50.006;36.180;2023-05-01T13:50:37;99748.00;;;12.41;62.01
54666;BME280;40566;50.006;36.180;2023-05-01T13:55:41;99765.22;;;12.42;61.56
54666;BME280;40566;50.006;36.180;2023-05-01T14:00:43;99755.88;;;12.38;61.57
54666;BME280;40566;50.006;36.180;2023-05-01T14:05:45;99754.41;;;12.30;61.72
54666;BME280;40566;50.006;36.180;2023-05-01T14:10:46;99763.91;;;12.30;61.52
54666;BME280;40566;50.006;36.180;2023-05-01T14:15:48;99774.19;;;12.33;62.15
54666;BME280;40566;50.006;36.180;2023-05-01T14:20:49;99769.78;;;12.35;62.10
54666;BME280;40566;50.006;36.180;2023-05-01T14:25:49;99773.09;;;12.40;62.28
54666;BME280;40566;50.006;36.180;2023-05-01T14:30:51;99771.38;;;12.39;62.55
54666;BME280;40566;50.006;36.180;2023-05-01T14:35:53;99787.91;;;12.37;62.85
54666;BME280;40566;50.006;36.180;2023-05-01T14:40:54;99787.47;;;12.24;62.98
54666;BME280;40566;50.006;36.180;2023-05-01T14:45:55;99798.72;;;12.24;63.36
54666;BME280;40566;50.006;36.180;2023-05-01T14:50:56;99799.59;;;12.23;62.93
54666;BME280;40566;50.006;36.180;2023-05-01T14:55:58;99796.25;;;12.20;63.33
54666;BME280;40566;50.006;36.180;2023-05-01T15:00:59;99808.38;;;12.19;63.27
54666;BME280;40566;50.006;36.180;2023-05-01T15:06:01;99813.56;;;12.19;63.17
54666;BME280;40566;50.006;36.180;2023-05-01T15:11:03;99805.78;;;12.19;63.36
54666;BME280;40566;50.006;36.180;2023-05-01T15:16:04;99809.19;;;12.21;63.53
54666;BME280;40566;50.006;36.180;2023-05-01T15:21:05;99819.59;;;12.20;63.26
54666;BME280;40566;50.006;36.180;2023-05-01T15:26:06;99822.09;;;12.23;62.82
54666;BME280;40566;50.006;36.180;2023-05-01T15:31:06;99826.91;;;12.34;62.11
54666;BME280;40566;50.006;36.180;2023-05-01T15:36:07;99837.78;;;12.45;61.98
54666;BME280;40566;50.006;36.180;2023-05-01T15:41:08;99843.72;;;12.48;62.41
54666;BME280;40566;50.006;36.180;2023-05-01T15:46:08;99844.81;;;12.41;62.72
54666;BME280;40566;50.006;36.180;2023-05-01T15:51:09;99852.63;;;12.40;63.36
54666;BME280;40566;50.006;36.180;2023-05-01T15:56:10;99859.69;;;12.36;63.31
54666;BME280;40566;50.006;36.180;2023-05-01T16:01:11;99856.28;;;12.34;63.12
54666;BME280;40566;50.006;36.180;2023-05-01T16:06:15;99858.84;;;12.36;63.23
54666;BME280;40566;50.006;36.180;2023-05-01T16:11:16;99882.34;;;12.31;63.78
54666;BME280;40566;50.006;36.180;2023-05-01T16:16:26;99880.50;;;12.35;63.35
54666;BME280;40566;50.006;36.180;2023-05-01T16:21:27;99900.44;;;12.33;64.00
54666;BME280;40566;50.006;36.180;2023-05-01T16:26:29;99903.97;;;12.30;64.03
54666;BME280;40566;50.006;36.180;2023-05-01T16:31:41;99901.56;;;12.24;63.90
54666;BME280;40566;50.006;36.180;2023-05-01T16:36:46;99923.72;;;12.07;63.74
54666;BME280;40566;50.006;36.180;2023-05-01T16:41:49;99915.44;;;11.95;64.00
54666;BME280;40566;50.006;36.180;2023-05-01T16:46:54;99915.91;;;11.79;63.95
54666;BME280;40566;50.006;36.180;2023-05-01T16:51:55;99938.03;;;11.61;63.85
54666;BME280;40566;50.006;36.180;2023-05-01T16:56:58;99947.03;;;11.48;64.36
54666;BME280;40566;50.006;36.180;2023-05-01T17:01:59;99957.75;;;11.36;64.68
54666;BME280;40566;50.006;36.180;2023-05-01T17:06:59;99965.81;;;11.25;65.04
54666;BME280;40566;50.006;36.180;2023-05-01T17:12:00;99973.94;;;11.11;65.06
54666;BME280;40566;50.006;36.180;2023-05-01T17:17:02;99988.97;;;10.97;65.68
54666;BME280;40566;50.006;36.180;2023-05-01T17:22:04;99983.31;;;10.82;65.84
54666;BME280;40566;50.006;36.180;2023-05-01T17:27:04;99997.44;;;10.69;65.84
54666;BME280;40566;50.006;36.180;2023-05-01T17:32:05;100005.44;;;10.58;66.02
54666;BME280;40566;50.006;36.180;2023-05-01T17:37:06;100010.91;;;10.46;66.37
54666;BME280;40566;50.006;36.180;2023-05-01T17:42:07;100021.38;;;10.40;66.35
54666;BME280;40566;50.006;36.180;2023-05-01T17:47:08;100025.03;;;10.29;66.62
54666;BME280;40566;50.006;36.180;2023-05-01T17:52:09;100029.53;;;10.21;66.87
54666;BME280;40566;50.006;36.180;2023-05-01T17:57:09;100040.81;;;10.17;66.92
54666;BME280;40566;50.006;36.180;2023-05-01T18:02:10;100046.09;;;10.11;67.04
54666;BME280;40566;50.006;36.180;2023-05-01T18:07:11;100052.16;;;10.10;67.01
54666;BME280;40566;50.006;36.180;2023-05-01T18:12:11;100059.16;;;10.05;67.40
54666;BME280;40566;50.006;36.180;2023-05-01T18:17:12;100058.38;;;10.01;67.19
54666;BME280;40566;50.006;36.180;2023-05-01T18:22:13;100064.44;;;9.99;67.26
54666;BME280;40566;50.006;36.180;2023-05-01T18:27:13;100080.06;;;9.92;67.45
54666;BME280;40566;50.006;36.180;2023-05-01T18:32:14;100084.53;;;9.86;67.41
54666;BME280;40566;50.006;36.180;2023-05-01T18:37:15;100080.22;;;9.85;67.65
54666;BME280;40566;50.006;36.180;2023-05-01T18:42:17;100088.06;;;9.80;67.67
54666;BME280;40566;50.006;36.180;2023-05-01T18:47:17;100100.28;;;9.72;67.74
54666;BME280;40566;50.006;36.180;2023-05-01T18:52:21;100099.50;;;9.68;67.72
54666;BME280;40566;50.006;36.180;2023-05-01T18:57:21;100104.78;;;9.62;67.60
54666;BME280;40566;50.006;36.180;2023-05-01T19:02:22;100120.31;;;9.58;67.92
54666;BME280;40566;50.006;36.180;2023-05-01T19:07:23;100118.69;;;9.53;68.19
54666;BME280;40566;50.006;36.180;2023-05-01T19:12:24;100130.88;;;9.45;68.24
54666;BME280;40566;50.006;36.180;2023-05-01T19:17:25;100130.16;;;9.37;68.13
54666;BME280;40566;50.006;36.180;2023-05-01T19:22:26;100139.75;;;9.30;68.29
54666;BME280;40566;50.006;36.180;2023-05-01T19:27:27;100130.38;;;9.23;68.45
54666;BME280;40566;50.006;36.180;2023-05-01T19:32:28;100142.50;;;9.18;68.68
54666;BME280;40566;50.006;36.180;2023-05-01T19:37:28;100140.94;;;9.09;68.65
54666;BME280;40566;50.006;36.180;2023-05-01T19:42:29;100150.50;;;9.03;68.73
54666;BME280;40566;50.006;36.180;2023-05-01T19:47:30;100152.34;;;8.95;68.95
54666;BME280;40566;50.006;36.180;2023-05-01T19:52:31;100154.13;;;8.88;68.82
54666;BME280;40566;50.006;36.180;2023-05-01T19:57:31;100162.88;;;8.79;69.02
54666;BME280;40566;50.006;36.180;2023-05-01T20:02:33;100167.31;;;8.68;69.10
54666;BME280;40566;50.006;36.180;2023-05-01T20:07:33;100179.44;;;8.61;69.22
54666;BME280;40566;50.006;36.180;2023-05-01T20:12:34;100176.94;;;8.55;69.26
54666;BME280;40566;50.006;36.180;2023-05-01T20:17:34;100186.44;;;8.50;69.44
54666;BME280;40566;50.006;36.180;2023-05-01T20:22:35;100181.38;;;8.45;69.50
54666;BME280;40566;50.006;36.180;2023-05-01T20:27:37;100177.97;;;8.42;69.71
54666;BME280;40566;50.006;36.180;2023-05-01T20:32:37;100189.19;;;8.34;69.93
54666;BME280;40566;50.006;36.180;2023-05-01T20:37:43;100196.06;;;8.32;69.96
54666;BME280;40566;50.006;36.180;2023-05-01T20:42:43;100190.97;;;8.28;70.02
54666;BME280;40566;50.006;36.180;2023-05-01T20:47:44;100192.75;;;8.21;69.98
54666;BME280;40566;50.006;36.180;2023-05-01T20:52:44;100201.38;;;8.17;70.17
54666;BME280;40566;50.006;36.180;2023-05-01T20:57:45;100208.34;;;8.12;70.13
54666;BME280;40566;50.006;36.180;2023-05-01T21:02:46;100208.41;;;8.04;70.40
54666;BME280;40566;50.006;36.180;2023-05-01T21:07:46;100212.75;;;7.99;70.74
54666;BME280;40566;50.006;36.180;2023-05-01T21:12:47;100215.34;;;7.96;70.68
54666;BME280;40566;50.006;36.180;2023-05-01T21:17:48;100224.78;;;7.99;70.61
54666;BME280;40566;50.006;36.180;2023-05-01T21:22:48;100226.53;;;7.93;70.84
54666;BME280;40566;50.006;36.180;2023-05-01T21:27:49;100221.34;;;7.97;70.70
54666;BME280;40566;50.006;36.180;2023-05-01T21:32:50;100222.25;;;7.94;70.74
54666;BME280;40566;50.006;36.180;2023-05-01T21:37:51;100232.56;;;7.91;70.84
54666;BME280;40566;50.006;36.180;2023-05-01T21:42:52;100223.28;;;7.76;71.14
54666;BME280;40566;50.006;36.180;2023-05-01T21:47:53;100233.41;;;7.91;71.02
54666;BME280;40566;50.006;36.180;2023-05-01T21:52:54;100243.75;;;7.88;70.64
54666;BME280;40566;50.006;36.180;2023-05-01T21:57:56;100224.94;;;7.80;70.84
54666;BME280;40566;50.006;36.180;2023-05-01T22:02:57;100248.16;;;7.75;71.00
54666;BME280;40566;50.006;36.180;2023-05-01T22:07:58;100240.56;;;7.59;71.34
54666;BME280;40566;50.006;36.180;2023-05-01T22:12:59;100252.53;;;7.64;71.33
54666;BME280;40566;50.006;36.180;2023-05-01T22:18:00;100249.97;;;7.64;71.30
54666;BME280;40566;50.006;36.180;2023-05-01T22:23:00;100261.13;;;7.62;71.49
54666;BME280;40566;50.006;36.180;2023-05-01T22:28:01;100267.16;;;7.59;71.76
54666;BME280;40566;50.006;36.180;2023-05-01T22:33:03;100248.41;;;7.42;71.99
54666;BME280;40566;50.006;36.180;2023-05-01T22:38:04;100266.41;;;7.40;71.98
54666;BME280;40566;50.006;36.180;2023-05-01T22:43:05;100256.16;;;7.37;72.18
54666;BME280;40566;50.006;36.180;2023-05-01T22:48:06;100288.69;;;7.47;72.00
54666;BME280;40566;50.006;36.180;2023-05-01T22:53:06;100282.75;;;7.39;71.97
54666;BME280;40566;50.006;36.180;2023-05-01T22:58:07;100298.19;;;7.41;71.87
54666;BME280;40566;50.006;36.180;2023-05-01T23:03:08;100292.28;;;7.23;72.04
54666;BME280;40566;50.006;36.180;2023-05-01T23:08:08;100305.97;;;7.25;72.22
54666;BME280;40566;50.006;36.180;2023-05-01T23:13:16;100309.44;;;7.23;72.08
54666;BME280;40566;50.006;36.180;2023-05-01T23:18:23;100309.53;;;7.01;72.43
54666;BME280;40566;50.006;36.180;2023-05-01T23:23:29;100313.72;;;7.14;71.83
54666;BME280;40566;50.006;36.180;2023-05-01T23:28:30;100322.38;;;6.98;71.94
54666;BME280;40566;50.006;36.180;2023-05-01T23:33:35;100318.16;;;6.88;72.06
54666;BME280;40566;50.006;36.180;2023-05-01T23:38:39;100340.41;;;6.92;71.95
54666;BME280;40566;50.006;36.180;2023-05-01T23:43:39;100343.84;;;6.94;71.82
54666;BME280;40566;50.006;36.180;2023-05-01T23:48:40;100337.00;;;6.82;71.88
54666;BME280;40566;50.006;36.180;2023-05-01T23:53:41;100361.00;;;6.90;71.79
54666;BME280;40566;50.006;36.180;2023-05-01T23:58:42;100348.16;;;6.78;72.08
